Time;durP1;ratioP1;P1;durP2;ratioP2;P2;SDS_P1;SDS_P2;PMS_P1;PMS_P2;Temp;Humidity;BMP_temperature;BMP_pressure;BME280_temperature;BME280_humidity;BME280_pressure;Samples;Min_cycle;Max_cycle;Signal;HPM_P1;HPM_P2
2023/07/30 00:09:08;;;;;;;2.65;1.25;;;;;;;17.22;100.00;97561.41;18421736;32;20053;-57
2023/07/30 00:19:10;;;;;;;5.05;1.35;;;;;;;17.12;100.00;97540.66;18435039;32;20105;-58
2023/07/30 00:29:12;;;;;;;4.97;1.62;;;;;;;17.04;100.00;97558.62;18420253;32;20049;-58
2023/07/30 00:39:15;;;;;;;3.00;1.58;;;;;;;17.02;100.00;97560.03;18433604;32;20080;-58
2023/07/30 00:49:17;;;;;;;3.45;1.58;;;;;;;16.91;100.00;97560.34;18418531;32;20067;-58
2023/07/30 00:59:21;;;;;;;2.05;1.30;;;;;;;16.83;100.00;97562.97;18432716;32;20079;-58
2023/07/30 01:09:24;;;;;;;1.92;1.00;;;;;;;16.74;100.00;97562.94;18432346;32;20053;-58
2023/07/30 01:19:27;;;;;;;3.23;1.30;;;;;;;16.67;100.00;97563.38;18431691;32;20410;-57
2023/07/30 01:29:45;;;;;;;1.55;1.02;;;;;;;16.59;100.00;97567.69;18431324;32;20076;-58
2023/07/30 01:39:49;;;;;;;3.25;1.27;;;;;;;16.50;100.00;97555.91;18431677;32;20081;-57
2023/07/30 01:49:51;;;;;;;2.37;1.12;;;;;;;16.45;100.00;97564.22;18430402;32;20057;-57
2023/07/30 01:59:53;;;;;;;3.70;1.37;;;;;;;16.42;100.00;97546.53;18430612;32;20076;-58
2023/07/30 02:09:56;;;;;;;3.53;1.20;;;;;;;16.33;100.00;97558.50;18430092;32;20053;-57
2023/07/30 02:19:59;;;;;;;3.20;1.15;;;;;;;16.22;100.00;97566.12;18436323;32;20080;-57
2023/07/30 02:30:01;;;;;;;1.70;1.00;;;;;;;16.16;100.00;97554.53;18441640;32;20057;-57
2023/07/30 02:40:04;;;;;;;1.85;1.00;;;;;;;16.17;100.00;97558.91;18434614;32;20079;-58
2023/07/30 02:50:08;;;;;;;2.70;0.80;;;;;;;16.13;100.00;97560.63;18425840;32;20065;-58
2023/07/30 03:00:11;;;;;;;2.05;1.10;;;;;;;16.07;100.00;97572.75;18440069;32;20429;-57
2023/07/30 03:10:14;;;;;;;1.37;1.10;;;;;;;15.99;100.00;97568.88;18439605;32;20388;-57
2023/07/30 03:20:16;;;;;;;2.72;0.93;;;;;;;15.95;100.00;97578.78;18438659;32;20076;-57
2023/07/30 03:30:19;;;;;;;2.60;1.10;;;;;;;15.92;100.00;97585.66;18438014;32;20056;-57
2023/07/30 03:40:22;;;;;;;3.17;1.37;;;;;;;15.86;100.00;97596.97;18437660;32;20105;-57
2023/07/30 03:50:24;;;;;;;1.12;1.02;;;;;;;15.81;100.00;97608.78;18422730;32;20057;-57
2023/07/30 04:00:26;;;;;;;1.70;0.80;;;;;;;15.94;100.00;97598.97;18436166;32;20407;-57
2023/07/30 04:10:29;;;;;;;3.75;1.08;;;;;;;16.08;100.00;97607.09;18435763;32;20065;-57
2023/07/30 04:20:31;;;;;;;2.37;1.10;;;;;;;16.18;100.00;97625.16;18421192;32;20068;-58
2023/07/30 04:30:35;;;;;;;1.60;1.10;;;;;;;16.35;100.00;97633.50;18427686;32;20377;-57
2023/07/30 04:40:38;;;;;;;1.33;1.03;;;;;;;16.45;100.00;97632.44;18433232;32;20057;-58
2023/07/30 04:50:41;;;;;;;0.87;0.60;;;;;;;16.48;100.00;97644.66;18432681;32;20045;-57
2023/07/30 05:00:44;;;;;;;1.42;0.75;;;;;;;16.53;100.00;97653.53;18432725;32;20045;-57
2023/07/30 05:10:46;;;;;;;1.20;0.90;;;;;;;16.64;100.00;97639.66;18418298;32;20065;-57
2023/07/30 05:20:49;;;;;;;1.67;0.73;;;;;;;16.70;100.00;97649.31;18432167;32;20361;-57
2023/07/30 05:30:51;;;;;;;1.20;0.80;;;;;;;16.72;100.00;97656.09;18431180;32;20099;-57
2023/07/30 05:40:54;;;;;;;1.10;0.90;;;;;;;16.98;100.00;97671.03;18417564;32;20058;-57
2023/07/30 05:50:57;;;;;;;1.23;0.90;;;;;;;17.31;100.00;97681.69;18433283;32;20480;-57
2023/07/30 06:00:59;;;;;;;1.90;0.90;;;;;;;17.58;100.00;97694.34;18429656;32;20083;-57
2023/07/30 06:11:04;;;;;;;1.85;1.00;;;;;;;17.77;100.00;97702.31;18443004;32;20065;-57
2023/07/30 06:21:07;;;;;;;1.25;0.90;;;;;;;17.99;100.00;97717.03;18427983;32;20073;-57
2023/07/30 06:31:09;;;;;;;3.60;1.20;;;;;;;18.51;100.00;97708.91;18414696;32;20054;-57
2023/07/30 06:41:12;;;;;;;1.40;1.08;;;;;;;19.15;100.00;97732.13;18441548;32;20095;-57
2023/07/30 06:51:14;;;;;;;2.28;1.02;;;;;;;19.13;100.00;97734.41;18440275;32;20082;-57
2023/07/30 07:01:17;;;;;;;1.63;1.00;;;;;;;19.45;100.00;97734.97;18439585;32;20058;-57
2023/07/30 07:11:20;;;;;;;1.87;1.00;;;;;;;20.09;100.00;97725.03;18437573;32;20115;-57
2023/07/30 07:21:23;;;;;;;1.33;1.03;;;;;;;20.28;100.00;97733.66;18420553;32;20101;-57
2023/07/30 07:31:26;;;;;;;2.53;1.20;;;;;;;20.76;100.00;97736.25;18438140;32;20381;-57
2023/07/30 07:41:29;;;;;;;2.37;1.35;;;;;;;20.93;100.00;97757.31;18437579;32;20144;-57
2023/07/30 07:51:32;;;;;;;2.12;1.20;;;;;;;20.86;100.00;97762.53;18436593;32;20057;-57
2023/07/30 08:01:35;;;;;;;2.03;1.10;;;;;;;20.93;100.00;97762.81;18422615;32;20057;-57
2023/07/30 08:11:38;;;;;;;;;;;;;;;20.98;100.00;97768.91;18408962;32;20104;-57
2023/07/30 08:21:41;;;;;;;1.17;1.00;;;;;;;21.44;100.00;97765.41;18434771;32;19945;-57
2023/07/30 08:31:44;;;;;;;1.83;1.15;;;;;;;21.95;100.00;97778.94;18434492;32;20061;-57
2023/07/30 08:41:47;;;;;;;1.48;1.17;;;;;;;21.13;100.00;97794.16;18419924;32;20114;-57
2023/07/30 08:51:53;;;;;;;1.47;1.17;;;;;;;20.99;100.00;97797.19;18367771;32;20081;-57
2023/07/30 09:01:56;;;;;;;3.37;1.10;;;;;;;21.17;100.00;97803.34;18362553;32;20473;-57
2023/07/30 09:12:00;;;;;;;;;;;;;;;21.31;100.00;97811.34;18367438;32;20390;-57
2023/07/30 09:22:06;;;;;;;1.42;0.98;;;;;;;21.08;100.00;97808.94;18368077;32;19964;-57
2023/07/30 09:32:09;;;;;;;1.77;1.10;;;;;;;21.23;100.00;97812.22;18367098;32;20070;-57
2023/07/30 09:42:12;;;;;;;1.70;1.30;;;;;;;21.90;100.00;97798.44;18367198;32;20080;-57
2023/07/30 09:52:16;;;;;;;1.75;1.25;;;;;;;22.75;100.00;97807.06;18365420;32;20084;-57
2023/07/30 10:02:20;;;;;;;2.78;1.42;;;;;;;22.94;100.00;97829.34;18366455;32;20119;-57
2023/07/30 10:12:28;;;;;;;2.20;1.20;;;;;;;23.52;100.00;97844.81;18364952;32;20167;-57
2023/07/30 10:22:32;;;;;;;1.98;1.48;;;;;;;24.11;100.00;97842.44;18364766;32;20105;-58
2023/07/30 10:32:57;;;;;;;1.98;1.50;;;;;;;24.03;100.00;97836.72;18365669;32;20084;-58
2023/07/30 10:43:00;;;;;;;1.33;1.15;;;;;;;23.74;91.05;97848.16;18373473;32;20464;-58
2023/07/30 10:53:04;;;;;;;2.87;1.25;;;;;;;23.75;81.20;97822.97;18433223;32;20080;-58
2023/07/30 11:03:07;;;;;;;1.15;0.77;;;;;;;23.96;78.04;97863.38;18426354;32;20358;-57
2023/07/30 11:13:12;;;;;;;1.30;0.70;;;;;;;23.77;61.87;97858.50;18439434;32;20062;-58
2023/07/30 11:23:23;;;;;;;1.95;0.90;;;;;;;24.09;67.84;97862.16;18425094;32;20060;-57
2023/07/30 11:33:28;;;;;;;1.52;0.93;;;;;;;24.34;66.01;97873.81;18438269;32;20424;-57
2023/07/30 11:43:31;;;;;;;1.65;0.88;;;;;;;24.57;56.39;97862.13;18437322;32;20118;-57
2023/07/30 11:53:56;;;;;;;2.85;1.20;;;;;;;24.89;60.01;97861.28;18436959;32;20076;-58
2023/07/30 12:04:00;;;;;;;2.85;1.27;;;;;;;25.11;65.63;97854.28;18409633;32;20080;-57
2023/07/30 12:14:04;;;;;;;1.98;1.17;;;;;;;25.28;55.52;97866.91;18421510;32;20083;-57
2023/07/30 12:24:07;;;;;;;3.37;1.00;;;;;;;25.45;59.38;97865.69;18420715;32;20073;-57
2023/07/30 12:34:12;;;;;;;1.62;1.10;;;;;;;25.70;54.25;97844.84;18420483;32;20065;-57
2023/07/30 12:44:15;;;;;;;1.50;0.70;;;;;;;25.96;52.93;97859.97;18413130;32;20109;-57
2023/07/30 12:54:18;;;;;;;1.40;0.80;;;;;;;26.21;51.90;97852.09;18419445;32;20510;-57
2023/07/30 13:04:26;;;;;;;1.77;0.90;;;;;;;26.63;44.79;97861.50;18432375;32;20054;-57
2023/07/30 13:14:29;;;;;;;2.10;1.35;;;;;;;26.75;49.42;97862.50;18417784;32;20085;-57
2023/07/30 13:24:35;;;;;;;2.28;1.20;;;;;;;26.84;49.03;97874.13;18431639;32;20104;-58
2023/07/30 13:34:38;;;;;;;1.55;0.80;;;;;;;27.43;47.35;97873.78;18431463;32;20198;-58
2023/07/30 13:44:42;;;;;;;2.67;0.90;;;;;;;27.98;46.36;97879.56;18416641;32;20370;-57
2023/07/30 13:54:45;;;;;;;4.12;1.10;;;;;;;27.71;42.58;97890.00;18430679;32;20080;-57
2023/07/30 14:04:48;;;;;;;2.15;1.23;;;;;;;28.37;47.21;97881.94;18430486;32;20112;-58
2023/07/30 14:14:50;;;;;;;3.80;1.12;;;;;;;29.06;45.26;97888.03;18434664;32;20445;-58
2023/07/30 14:24:54;;;;;;;4.40;1.20;;;;;;;28.50;43.78;97888.00;18442691;32;20081;-57
2023/07/30 14:34:56;;;;;;;3.65;1.33;;;;;;;27.68;51.95;97874.06;18408456;32;20057;-57
2023/07/30 14:44:59;;;;;;;3.72;1.20;;;;;;;28.11;48.47;97890.41;18441028;32;20449;-57
2023/07/30 14:55:02;;;;;;;2.85;1.30;;;;;;;28.10;46.08;97897.19;18440537;32;20083;-57
2023/07/30 15:05:05;;;;;;;2.70;1.45;;;;;;;28.06;45.96;97914.59;18439959;32;20434;-57
2023/07/30 15:15:10;;;;;;;3.25;1.27;;;;;;;27.65;50.04;97903.41;18425483;32;20105;-57
2023/07/30 15:25:13;;;;;;;2.90;1.30;;;;;;;26.86;50.67;97891.19;18437657;32;20064;-57
2023/07/30 15:35:16;;;;;;;3.62;1.48;;;;;;;26.03;55.30;97896.13;18418563;32;20057;-57
2023/07/30 15:45:19;;;;;;;2.37;1.10;;;;;;;25.43;60.83;97890.16;18437259;32;20106;-57
2023/07/30 15:55:22;;;;;;;2.25;1.20;;;;;;;25.10;57.74;97888.66;18437182;32;20061;-57
2023/07/30 16:05:25;;;;;;;2.30;1.02;;;;;;;24.69;60.36;97881.41;18436428;32;20065;-57
2023/07/30 16:15:29;;;;;;;1.98;0.90;;;;;;;24.24;59.84;97881.84;18435831;32;20099;-57
2023/07/30 16:25:34;;;;;;;1.80;1.40;;;;;;;24.01;63.84;97882.44;18428327;32;20118;-57
2023/07/30 16:35:37;;;;;;;2.37;1.30;;;;;;;24.35;58.10;97875.44;18433846;32;20061;-57
2023/07/30 16:45:41;;;;;;;3.90;1.30;;;;;;;24.57;60.08;97867.66;18433652;32;20080;-57
2023/07/30 16:55:44;;;;;;;1.20;1.00;;;;;;;24.39;57.74;97869.19;18419662;32;20084;-57
2023/07/30 17:05:59;;;;;;;1.73;1.02;;;;;;;23.91;63.27;97875.47;18432948;32;20103;-57
2023/07/30 17:16:11;;;;;;;2.75;1.25;;;;;;;23.50;62.84;97886.56;18426009;32;20066;-57
2023/07/30 17:26:15;;;;;;;1.83;1.15;;;;;;;22.98;64.03;97874.37;18426740;32;20053;-57
2023/07/30 17:36:18;;;;;;;5.30;0.80;;;;;;;22.76;73.93;97878.41;18431395;32;20498;-57
2023/07/30 17:46:21;;;;;;;1.23;0.95;;;;;;;22.56;77.59;97891.16;18432516;32;20057;-57
2023/07/30 17:56:25;;;;;;;3.37;1.33;;;;;;;22.25;74.24;97889.69;18444280;32;20073;-57
2023/07/30 18:06:28;;;;;;;2.03;1.00;;;;;;;22.14;81.44;97886.59;18429857;32;20049;-57
2023/07/30 18:16:31;;;;;;;3.45;1.42;;;;;;;21.75;85.71;97896.22;18442768;32;20056;-57
2023/07/30 18:26:34;;;;;;;6.12;1.17;;;;;;;21.50;83.63;97920.84;18416331;32;20065;-57
2023/07/30 18:36:36;;;;;;;2.70;1.43;;;;;;;21.26;93.44;97925.09;18441782;32;20061;-57
2023/07/30 18:46:39;;;;;;;4.30;1.40;;;;;;;20.73;100.00;97921.81;18441010;32;20425;-56
2023/07/30 18:56:43;;;;;;;2.15;1.33;;;;;;;20.28;100.00;97920.37;18440137;32;20112;-56
2023/07/30 19:06:48;;;;;;;3.95;2.03;;;;;;;19.83;100.00;97920.81;18433305;32;20446;-56
2023/07/30 19:16:51;;;;;;;4.75;1.80;;;;;;;19.36;100.00;97929.66;18425881;32;20108;-56
2023/07/30 19:26:54;;;;;;;2.97;1.20;;;;;;;18.94;100.00;97945.72;18424525;32;20446;-55
2023/07/30 19:36:57;;;;;;;2.93;1.60;;;;;;;18.56;100.00;97943.47;18438103;32;20121;-56
2023/07/30 19:47:00;;;;;;;2.40;1.83;;;;;;;18.20;100.00;97947.97;18437178;32;20475;-56
2023/07/30 19:57:03;;;;;;;3.90;2.17;;;;;;;17.93;100.00;97941.50;18436887;32;20053;-56
2023/07/30 20:07:06;;;;;;;3.97;2.40;;;;;;;17.67;100.00;97957.69;18436357;32;20464;-57
2023/07/30 20:17:09;;;;;;;4.13;2.77;;;;;;;17.46;100.00;97968.31;18408817;32;20466;-57
2023/07/30 20:27:12;;;;;;;2.05;1.50;;;;;;;17.26;100.00;97962.16;18434962;32;20338;-56
2023/07/30 20:37:15;;;;;;;3.13;1.30;;;;;;;17.10;100.00;97958.13;18434396;32;20053;-57
2023/07/30 20:47:18;;;;;;;4.07;1.20;;;;;;;16.92;100.00;97941.59;18419815;32;20084;-56
2023/07/30 20:57:20;;;;;;;1.85;0.88;;;;;;;16.73;100.00;97952.59;18426529;32;20365;-56
2023/07/30 21:07:23;;;;;;;1.87;1.00;;;;;;;16.59;100.00;97944.41;18433009;32;20094;-56
2023/07/30 21:17:26;;;;;;;1.75;1.10;;;;;;;16.40;100.00;97952.66;18418148;32;20058;-56
2023/07/30 21:27:29;;;;;;;2.37;1.05;;;;;;;16.25;100.00;97961.94;18417766;32;20089;-57
2023/07/30 21:37:31;;;;;;;2.70;1.27;;;;;;;16.14;100.00;97956.97;18418010;32;20423;-56
2023/07/30 21:47:34;;;;;;;2.50;0.98;;;;;;;16.00;100.00;97957.72;18416751;32;20108;-56
2023/07/30 21:57:36;;;;;;;2.62;1.25;;;;;;;15.90;100.00;97966.87;18430569;32;20479;-56
2023/07/30 22:07:39;;;;;;;1.95;1.40;;;;;;;15.76;100.00;97977.72;18431023;32;20076;-57
2023/07/30 22:17:42;;;;;;;6.18;1.45;;;;;;;15.59;100.00;97991.88;18415257;32;20061;-56
2023/07/30 22:27:44;;;;;;;2.87;1.00;;;;;;;15.48;100.00;97997.75;18429775;32;20049;-56
2023/07/30 22:38:07;;;;;;;2.05;1.10;;;;;;;15.37;100.00;98002.53;18425489;32;20096;-56
2023/07/30 22:48:10;;;;;;;3.45;1.55;;;;;;;15.31;100.00;98009.16;18440651;32;20061;-56
2023/07/30 22:58:13;;;;;;;1.20;0.90;;;;;;;15.21;100.00;98002.75;18426678;32;20433;-56
2023/07/30 23:08:15;;;;;;;1.77;1.10;;;;;;;15.17;100.00;98006.31;18439899;32;20109;-56
2023/07/30 23:18:18;;;;;;;1.95;1.00;;;;;;;15.11;100.00;98002.84;18425607;32;20058;-56
2023/07/30 23:28:20;;;;;;;2.25;1.20;;;;;;;15.07;100.00;97972.69;18438783;32;20082;-56
2023/07/30 23:38:22;;;;;;;1.85;1.25;;;;;;;15.02;100.00;97963.75;18438236;32;20064;-56
2023/07/30 23:48:25;;;;;;;1.95;0.80;;;;;;;14.87;100.00;97956.63;18436834;32;20053;-57
2023/07/30 23:58:27;;;;;;;3.40;1.00;;;;;;;14.77;100.00;97960.25;18437414;32;20449;-57
